Terminal Aerodrome Forecast
Issued by NWS

Home | Current Version | Previous Version | Text Only | Print | Product List | Glossary On
Versions: 1 2 3 4 5 6 7 8 9 10 11 12 13 14 15 16 17 18 19 20 21 22 23 24 25 26 27 28 29 30 31
000
FTUS44 KFWD 271525 AAB
TAFGKY
TAF AMD
KGKY 271525Z 2715/2812 03011KT 2SM -SN BR BKN020 OVC040
      TEMPO 2715/2718 1/2SM SN VV011
     FM280300 07010KT 2SM -FZDZSN BR OVC010
     FM280800 17008KT 2SM -FZDZ BR OVC007=

USA.gov is the U.S. government's official web portal to all federal, state and local government web resources and services.